Time;durP1;ratioP1;P1;durP2;ratioP2;P2;SDS_P1;SDS_P2;PMS_P1;PMS_P2;Temp;Humidity;BMP_temperature;BMP_pressure;BME280_temperature;BME280_humidity;BME280_pressure;Samples;Min_cycle;Max_cycle;Signal;HPM_P1;HPM_P2
2022/01/11 00:00:11;;;;;;;32.83;25.52;;;;;;;-2.39;100.00;100232.94;2104636;28;20266;-73
2022/01/11 00:01:14;;;;;;;34.55;26.83;;;;;;;-2.40;100.00;100231.31;2097052;28;20291;-73
2022/01/11 00:02:18;;;;;;;31.38;26.23;;;;;;;-2.40;100.00;100228.69;2104983;28;20225;-73
2022/01/11 00:03:20;;;;;;;32.08;26.08;;;;;;;-2.30;100.00;100237.06;2104622;28;20300;-73
2022/01/11 00:04:28;;;;;;;32.72;26.88;;;;;;;-2.16;100.00;100240.66;2105126;28;20209;-73
2022/01/11 00:05:33;;;;;;;31.38;25.08;;;;;;;-2.19;100.00;100237.56;2104761;28;20225;-73
2022/01/11 00:06:40;;;;;;;31.02;24.90;;;;;;;-2.24;100.00;100239.94;2105315;28;20613;-73
2022/01/11 00:07:44;;;;;;;30.02;24.67;;;;;;;-2.24;100.00;100245.16;2104420;28;20221;-73
2022/01/11 00:08:45;;;;;;;29.42;24.92;;;;;;;-2.30;100.00;100238.84;2105004;28;20233;-73
2022/01/11 00:09:50;;;;;;;30.65;25.05;;;;;;;-2.34;100.00;100235.81;2105048;28;20229;-73
2022/01/11 00:10:53;;;;;;;34.38;26.23;;;;;;;-2.10;100.00;100241.69;2104859;28;20221;-73
2022/01/11 00:11:55;;;;;;;35.75;25.13;;;;;;;-2.11;100.00;100251.34;2104526;28;20228;-73
2022/01/11 00:12:57;;;;;;;33.85;25.92;;;;;;;-2.19;100.00;100243.59;2105082;28;20232;-73
2022/01/11 00:14:00;;;;;;;33.97;26.17;;;;;;;-2.29;100.00;100237.84;2104851;28;20233;-73
2022/01/11 00:15:01;;;;;;;30.02;23.67;;;;;;;-2.21;100.00;100245.59;2096826;28;20226;-73
2022/01/11 00:16:04;;;;;;;31.23;24.60;;;;;;;-2.10;100.00;100250.34;2104769;28;20225;-73
2022/01/11 00:17:06;;;;;;;32.47;25.55;;;;;;;-1.96;100.00;100253.13;2105702;28;20277;-73
2022/01/11 00:18:08;;;;;;;31.25;23.90;;;;;;;-1.98;100.00;100258.53;2104865;28;20684;-73
2022/01/11 00:19:09;;;;;;;32.70;25.40;;;;;;;-2.02;100.00;100257.28;2096208;28;20333;-73
2022/01/11 00:20:12;;;;;;;30.00;23.92;;;;;;;-2.07;100.00;100251.81;2096471;28;20229;-73
2022/01/11 00:21:15;;;;;;;32.40;25.48;;;;;;;-2.14;100.00;100245.69;2104955;28;20217;-73
2022/01/11 00:22:19;;;;;;;36.15;24.85;;;;;;;-2.23;100.00;100257.25;2104972;28;20222;-73
2022/01/11 00:24:41;;;;;;;34.40;25.38;;;;;;;-2.28;100.00;100247.31;2104502;28;20655;-73
2022/01/11 00:25:43;;;;;;;31.35;25.60;;;;;;;-2.37;100.00;100237.97;2104866;28;20304;-73
2022/01/11 00:26:45;;;;;;;30.70;25.15;;;;;;;-2.38;100.00;100250.22;2104993;28;20639;-73
2022/01/11 00:27:46;;;;;;;32.45;25.98;;;;;;;-2.41;100.00;100245.38;2104766;28;20224;-73
2022/01/11 00:28:48;;;;;;;32.83;25.75;;;;;;;-2.27;100.00;100249.75;2096461;28;20232;-73
2022/01/11 00:30:07;;;;;;;30.00;25.38;;;;;;;-2.28;100.00;100255.97;2097320;28;20272;-73
2022/01/11 00:31:09;;;;;;;30.20;24.65;;;;;;;-2.17;100.00;100251.25;2097357;28;20313;-74
2022/01/11 00:32:15;;;;;;;32.67;25.80;;;;;;;-2.06;100.00;100256.03;2104668;28;20229;-73
2022/01/11 00:33:20;;;;;;;30.15;25.58;;;;;;;-2.21;100.00;100260.47;2104978;28;20225;-72
2022/01/11 00:34:24;;;;;;;30.45;24.73;;;;;;;-2.28;100.00;100260.38;2104776;28;20217;-73
2022/01/11 00:35:28;;;;;;;32.05;25.08;;;;;;;-2.25;100.00;100262.66;2096058;28;20226;-73
2022/01/11 00:36:41;;;;;;;38.22;26.17;;;;;;;-2.26;100.00;100258.41;2104836;28;20225;-73
2022/01/11 00:37:44;;;;;;;30.50;25.08;;;;;;;-2.27;100.00;100257.59;2104257;28;20260;-73
2022/01/11 00:38:46;;;;;;;31.63;26.17;;;;;;;-2.33;100.00;100252.31;2104847;28;20311;-73
2022/01/11 00:39:50;;;;;;;34.80;25.70;;;;;;;-2.18;100.00;100253.06;2104699;28;20276;-73
2022/01/11 00:40:54;;;;;;;31.90;24.73;;;;;;;-1.98;100.00;100261.16;2096814;28;20595;-72
2022/01/11 00:41:57;;;;;;;31.60;25.45;;;;;;;-2.12;100.00;100262.78;2096282;28;20226;-73
2022/01/11 00:43:00;;;;;;;29.80;24.27;;;;;;;-2.11;100.00;100261.00;2104738;28;20221;-73
2022/01/11 00:44:01;;;;;;;29.05;24.50;;;;;;;-2.08;100.00;100264.06;2104817;28;20700;-73
2022/01/11 00:45:08;;;;;;;31.65;25.40;;;;;;;-2.07;100.00;100263.06;2096259;28;20544;-73
2022/01/11 00:46:10;;;;;;;32.20;26.58;;;;;;;-2.02;100.00;100263.31;2096304;28;20229;-73
2022/01/11 00:47:12;;;;;;;31.30;25.60;;;;;;;-2.15;100.00;100260.56;2096477;28;20225;-72
2022/01/11 00:48:13;;;;;;;31.23;25.15;;;;;;;-2.07;100.00;100262.25;2096437;28;20225;-72
2022/01/11 00:49:16;;;;;;;33.80;24.83;;;;;;;-2.07;100.00;100264.88;2096258;28;20699;-73
2022/01/11 00:50:18;;;;;;;30.42;25.75;;;;;;;-2.15;100.00;100262.38;2096590;28;20222;-73
2022/01/11 00:51:22;;;;;;;32.92;26.52;;;;;;;-2.16;100.00;100261.56;2104658;28;20213;-73
2022/01/11 00:52:23;;;;;;;35.25;25.75;;;;;;;-2.23;100.00;100265.09;2104264;28;20236;-73
2022/01/11 00:53:25;;;;;;;30.83;25.75;;;;;;;-2.25;100.00;100259.22;2104527;28;20304;-73
2022/01/11 00:54:26;;;;;;;30.77;25.42;;;;;;;-2.29;100.00;100266.59;2096344;28;20234;-72
2022/01/11 00:55:28;;;;;;;34.20;25.45;;;;;;;-2.34;100.00;100258.53;2104742;28;20225;-73
2022/01/11 00:56:29;;;;;;;33.33;25.98;;;;;;;-2.36;100.00;100258.69;2105351;28;20228;-74
2022/01/11 00:57:31;;;;;;;33.70;26.33;;;;;;;-2.31;100.00;100258.97;2105063;28;20252;-73
2022/01/11 00:58:32;;;;;;;35.45;25.95;;;;;;;-2.28;100.00;100263.00;2104394;28;20221;-73
2022/01/11 00:59:35;;;;;;;29.57;24.97;;;;;;;-2.36;100.00;100258.69;2104611;28;20773;-72
2022/01/11 01:00:38;;;;;;;32.92;25.90;;;;;;;-2.37;100.00;100257.06;2104485;28;20454;-73
2022/01/11 01:01:39;;;;;;;33.78;25.77;;;;;;;-2.37;100.00;100262.28;2095889;28;20276;-73
2022/01/11 01:02:41;;;;;;;35.15;26.15;;;;;;;-2.38;100.00;100252.03;2096278;28;20222;-73
2022/01/11 01:03:43;;;;;;;34.95;27.10;;;;;;;-2.39;100.00;100264.28;2104563;28;20225;-73
2022/01/11 01:04:44;;;;;;;34.10;24.90;;;;;;;-2.39;100.00;100260.84;2104401;28;20218;-73
2022/01/11 01:05:46;;;;;;;33.58;25.27;;;;;;;-2.34;100.00;100261.13;2096383;28;20229;-73
2022/01/11 01:06:48;;;;;;;30.92;25.42;;;;;;;-2.34;100.00;100263.75;2096543;28;20221;-73
2022/01/11 01:07:52;;;;;;;32.42;25.23;;;;;;;-2.37;100.00;100264.91;2104655;28;20646;-73
2022/01/11 01:08:54;;;;;;;35.78;26.27;;;;;;;-2.33;100.00;100263.56;2095970;28;20222;-74
2022/01/11 01:10:01;;;;;;;31.48;24.35;;;;;;;-2.22;100.00;100259.66;2096137;28;20226;-72
2022/01/11 01:11:07;;;;;;;29.02;24.10;;;;;;;-2.19;100.00;100258.47;2097446;28;20226;-73
2022/01/11 01:12:17;;;;;;;32.38;25.00;;;;;;;-2.21;100.00;100263.09;2104097;28;20308;-73
2022/01/11 01:13:22;;;;;;;34.08;25.95;;;;;;;-2.21;100.00;100261.28;2104635;28;20221;-73
2022/01/11 01:14:27;;;;;;;28.77;24.27;;;;;;;-2.27;100.00;100252.34;2104133;28;20233;-73
2022/01/11 01:15:29;;;;;;;32.03;24.73;;;;;;;-2.25;100.00;100259.22;2104407;28;20757;-73
2022/01/11 01:16:35;;;;;;;31.00;24.85;;;;;;;-2.27;100.00;100262.81;2104159;28;20758;-73
2022/01/11 01:17:43;;;;;;;34.13;24.27;;;;;;;-2.12;100.00;100260.19;2103950;28;20233;-72
2022/01/11 01:18:45;;;;;;;33.00;25.45;;;;;;;-2.16;100.00;100264.16;2096064;28;20331;-73
2022/01/11 01:19:47;;;;;;;32.75;24.88;;;;;;;-2.22;100.00;100264.09;2104485;28;20217;-73
2022/01/11 01:20:54;;;;;;;32.00;25.92;;;;;;;-2.16;100.00;100263.34;2104375;28;20599;-73
2022/01/11 01:21:57;;;;;;;29.67;24.10;;;;;;;-2.01;100.00;100267.53;2103997;28;20659;-73
2022/01/11 01:22:57;;;;;;;30.83;25.40;;;;;;;-2.11;100.00;100269.63;2096055;28;20564;-72
2022/01/11 01:23:59;;;;;;;27.17;23.73;;;;;;;-2.12;100.00;100269.84;2104569;28;20244;-72
2022/01/11 01:25:01;;;;;;;31.77;25.20;;;;;;;-2.12;100.00;100269.84;2104371;28;20695;-72
2022/01/11 01:26:04;;;;;;;32.08;23.63;;;;;;;-2.00;100.00;100263.13;2104370;28;20728;-72
2022/01/11 01:27:08;;;;;;;30.73;24.55;;;;;;;-1.87;100.00;100276.34;2096020;28;20563;-72
2022/01/11 01:28:11;;;;;;;32.03;23.77;;;;;;;-1.97;100.00;100273.22;2095772;28;20225;-72
2022/01/11 01:29:12;;;;;;;31.55;25.27;;;;;;;-2.02;100.00;100278.19;2096290;28;20218;-72
2022/01/11 01:30:14;;;;;;;31.97;24.97;;;;;;;-2.05;100.00;100282.00;2096021;28;20233;-73
2022/01/11 01:31:16;;;;;;;32.92;25.55;;;;;;;-2.13;100.00;100274.25;2096286;28;20674;-72
2022/01/11 01:32:20;;;;;;;32.13;25.20;;;;;;;-2.16;100.00;100271.22;2096021;28;20225;-73
2022/01/11 01:33:24;;;;;;;31.35;25.25;;;;;;;-2.16;100.00;100277.25;2096407;28;20272;-72
2022/01/11 01:34:26;;;;;;;30.50;25.42;;;;;;;-2.23;100.00;100271.13;2104092;28;20316;-73
2022/01/11 01:35:33;;;;;;;29.83;24.38;;;;;;;-2.28;100.00;100271.66;2104419;28;20229;-72
2022/01/11 01:36:35;;;;;;;31.30;24.63;;;;;;;-2.27;100.00;100275.06;2104521;28;20304;-72
2022/01/11 01:37:36;;;;;;;33.90;24.45;;;;;;;-2.23;100.00;100268.50;2104480;28;20220;-72
2022/01/11 01:38:39;;;;;;;35.30;24.20;;;;;;;-2.22;100.00;100269.31;2096092;28;20272;-72
2022/01/11 01:39:42;;;;;;;34.00;25.63;;;;;;;-2.28;100.00;100276.06;2104274;28;20304;-73
2022/01/11 01:40:46;;;;;;;30.42;23.52;;;;;;;-2.31;100.00;100274.63;2104297;28;20227;-73
2022/01/11 01:41:50;;;;;;;30.30;23.80;;;;;;;-2.24;100.00;100274.72;2096412;28;20248;-72
2022/01/11 01:42:51;;;;;;;30.58;23.80;;;;;;;-2.17;100.00;100274.78;2104510;28;20803;-73
2022/01/11 01:43:59;;;;;;;27.73;23.50;;;;;;;-2.17;100.00;100272.16;2104015;28;20225;-75
2022/01/11 01:45:02;;;;;;;32.95;24.85;;;;;;;-2.25;100.00;100274.91;2104520;28;20262;-73
2022/01/11 01:46:04;;;;;;;28.67;23.42;;;;;;;-2.33;100.00;100274.03;2104477;28;20229;-73
2022/01/11 01:47:09;;;;;;;28.02;23.63;;;;;;;-2.33;100.00;100279.25;2096007;28;20601;-73
2022/01/11 01:48:13;;;;;;;29.95;25.55;;;;;;;-2.38;100.00;100276.34;2104175;28;20612;-73
2022/01/11 01:49:18;;;;;;;33.10;24.27;;;;;;;-2.43;100.00;100275.25;2104102;28;20241;-73
2022/01/11 01:50:19;;;;;;;31.30;24.25;;;;;;;-2.44;100.00;100277.06;2104370;28;20731;-73
2022/01/11 01:51:21;;;;;;;28.63;24.17;;;;;;;-2.44;100.00;100271.84;2104294;28;20267;-73
2022/01/11 01:52:22;;;;;;;26.65;23.27;;;;;;;-2.42;100.00;100280.34;2096114;28;20226;-73
2022/01/11 01:53:25;;;;;;;29.17;22.67;;;;;;;-2.35;100.00;100283.81;2095535;28;20226;-74
2022/01/11 01:54:27;;;;;;;27.88;23.52;;;;;;;-2.38;100.00;100281.56;2104178;28;20233;-73
2022/01/11 01:55:30;;;;;;;28.48;23.08;;;;;;;-2.29;100.00;100277.88;2105043;28;20663;-74
2022/01/11 01:56:31;;;;;;;30.80;23.65;;;;;;;-2.28;100.00;100276.06;2104241;28;20217;-73
2022/01/11 01:57:33;;;;;;;30.95;24.15;;;;;;;-2.33;100.00;100276.63;2104575;28;20247;-73
2022/01/11 01:58:34;;;;;;;30.60;24.17;;;;;;;-2.29;100.00;100290.13;2105213;28;20221;-73
2022/01/11 01:59:36;;;;;;;29.85;24.10;;;;;;;-2.30;100.00;100280.69;2097709;28;20741;-73
2022/01/11 02:00:42;;;;;;;31.25;24.02;;;;;;;-2.23;100.00;100286.00;2106090;28;20217;-73
2022/01/11 02:01:46;;;;;;;30.33;24.33;;;;;;;-2.30;100.00;100278.06;2097879;28;20252;-73
2022/01/11 02:02:48;;;;;;;27.33;24.05;;;;;;;-2.34;100.00;100280.25;2106205;28;20263;-73
2022/01/11 02:03:51;;;;;;;29.42;23.83;;;;;;;-2.36;100.00;100282.19;2105940;28;20228;-73
2022/01/11 02:04:53;;;;;;;28.70;24.15;;;;;;;-2.39;100.00;100282.56;2106051;28;20576;-73
2022/01/11 02:05:56;;;;;;;28.92;23.45;;;;;;;-2.37;100.00;100287.63;2106550;28;20221;-74
2022/01/11 02:06:58;;;;;;;30.70;24.83;;;;;;;-2.41;100.00;100283.75;2105994;28;20228;-73
2022/01/11 02:08:01;;;;;;;31.60;25.15;;;;;;;-2.33;100.00;100278.44;2097761;28;20737;-73
2022/01/11 02:09:02;;;;;;;27.73;23.75;;;;;;;-2.20;100.00;100288.22;2097853;28;20626;-73
2022/01/11 02:10:06;;;;;;;29.75;24.25;;;;;;;-2.15;100.00;100286.69;2097531;28;20228;-73
2022/01/11 02:11:07;;;;;;;29.35;23.80;;;;;;;-2.02;100.00;100281.59;2097302;28;20221;-75
2022/01/11 02:12:10;;;;;;;30.45;23.65;;;;;;;-2.01;100.00;100285.03;2097474;28;20228;-73
2022/01/11 02:13:10;;;;;;;29.50;23.30;;;;;;;-2.05;100.00;100291.63;2097643;28;20232;-73
2022/01/11 02:14:12;;;;;;;29.33;24.93;;;;;;;-1.94;100.00;100292.97;2097316;28;20676;-73
2022/01/11 02:15:14;;;;;;;29.70;24.40;;;;;;;-1.88;100.00;100297.47;2097629;28;20695;-74
2022/01/11 02:16:20;;;;;;;28.40;24.17;;;;;;;-2.06;100.00;100285.59;2105818;28;20227;-73
2022/01/11 02:17:21;;;;;;;27.00;24.02;;;;;;;-2.08;100.00;100289.41;2105901;28;20217;-73
2022/01/11 02:18:26;;;;;;;30.35;24.55;;;;;;;-2.02;100.00;100291.25;2097139;28;20237;-73
2022/01/11 02:19:32;;;;;;;32.60;24.50;;;;;;;-2.03;100.00;100292.25;2098518;28;20304;-73
2022/01/11 02:20:36;;;;;;;34.75;24.88;;;;;;;-2.13;100.00;100286.50;2097779;28;20228;-73
2022/01/11 02:21:38;;;;;;;31.02;24.73;;;;;;;-2.20;100.00;100290.84;2105694;28;20274;-73
2022/01/11 02:22:42;;;;;;;31.73;24.38;;;;;;;-2.08;100.00;100292.00;2097192;28;20640;-73
2022/01/11 02:23:44;;;;;;;34.35;25.60;;;;;;;-1.98;100.00;100297.75;2097892;28;20222;-73
2022/01/11 02:24:45;;;;;;;30.23;24.63;;;;;;;-1.94;100.00;100306.84;2097764;28;20684;-72
2022/01/11 02:25:47;;;;;;;33.35;25.10;;;;;;;-1.94;100.00;100296.38;2097631;28;20780;-73
2022/01/11 02:26:50;;;;;;;29.90;25.60;;;;;;;-1.93;100.00;100292.78;2105841;28;20227;-73
2022/01/11 02:27:51;;;;;;;28.10;24.67;;;;;;;-1.86;100.00;100300.69;2105710;28;20623;-73
2022/01/11 02:28:56;;;;;;;33.47;25.70;;;;;;;-1.98;100.00;100302.19;2105769;28;20217;-72
2022/01/11 02:29:57;;;;;;;33.95;26.33;;;;;;;-2.08;100.00;100290.22;2097527;28;20259;-73
2022/01/11 02:31:01;;;;;;;31.88;24.58;;;;;;;-2.10;100.00;100301.81;2097407;28;20245;-73
2022/01/11 02:32:05;;;;;;;33.55;24.90;;;;;;;-1.90;100.00;100305.50;2097954;28;20249;-73
2022/01/11 02:33:14;;;;;;;31.58;25.85;;;;;;;-2.03;100.00;100298.28;2097521;28;20222;-73
2022/01/11 02:34:16;;;;;;;28.33;23.23;;;;;;;-2.08;100.00;100302.47;2098217;28;20229;-73
2022/01/11 02:35:39;;;;;;;30.85;24.67;;;;;;;-2.11;100.00;100297.59;2090895;28;20236;-75
2022/01/11 02:36:43;;;;;;;28.27;23.15;;;;;;;-2.03;100.00;100300.09;2106669;28;20230;-73
2022/01/11 02:38:06;;;;;;;30.27;24.80;;;;;;;-1.99;100.00;100304.00;2105371;28;20274;-73
2022/01/11 02:39:07;;;;;;;31.05;24.45;;;;;;;-1.89;100.00;100306.31;2097227;28;20241;-75
2022/01/11 02:40:10;;;;;;;34.67;26.75;;;;;;;-1.84;100.00;100306.56;2097403;28;20769;-73
2022/01/11 02:41:11;;;;;;;29.50;24.15;;;;;;;-1.91;100.00;100313.50;2097504;28;20221;-73
2022/01/11 02:42:13;;;;;;;34.50;23.53;;;;;;;-1.91;100.00;100310.88;2097295;28;20229;-73
2022/01/11 02:43:18;;;;;;;35.25;25.88;;;;;;;-1.91;100.00;100313.50;2097828;28;20218;-73
2022/01/11 02:44:21;;;;;;;31.10;24.95;;;;;;;-1.98;100.00;100313.44;2097371;28;20271;-72
2022/01/11 02:45:22;;;;;;;34.75;24.30;;;;;;;-1.98;100.00;100310.84;2105556;28;20229;-73
2022/01/11 02:46:25;;;;;;;32.58;24.33;;;;;;;-2.10;100.00;100301.81;2096864;28;20317;-73
2022/01/11 02:47:27;;;;;;;28.98;23.65;;;;;;;-2.18;100.00;100302.72;2097680;28;20585;-73
2022/01/11 02:48:30;;;;;;;32.38;24.33;;;;;;;-2.27;100.00;100306.44;2097493;28;20245;-73
2022/01/11 02:49:32;;;;;;;27.55;23.67;;;;;;;-2.27;100.00;100304.63;2097356;28;20222;-73
2022/01/11 02:50:48;;;;;;;32.50;23.90;;;;;;;-2.26;100.00;100315.91;2098584;28;20295;-73
2022/01/11 02:51:51;;;;;;;29.42;23.73;;;;;;;-2.31;100.00;100299.97;2097517;28;20688;-73
2022/01/11 02:52:53;;;;;;;29.65;23.42;;;;;;;-2.24;100.00;100305.28;2105251;28;20224;-75
2022/01/11 02:53:55;;;;;;;30.35;23.92;;;;;;;-2.35;100.00;100307.34;2106390;28;20722;-73
2022/01/11 02:54:57;;;;;;;27.85;23.20;;;;;;;-2.37;100.00;100309.31;2105720;28;20749;-73
2022/01/11 02:56:00;;;;;;;27.83;22.73;;;;;;;-2.42;100.00;100311.69;2097185;28;20665;-73
2022/01/11 02:57:04;;;;;;;28.05;23.77;;;;;;;-2.45;100.00;100306.00;2097369;28;20624;-73
2022/01/11 02:58:06;;;;;;;28.15;24.95;;;;;;;-2.42;100.00;100311.69;2105734;28;20667;-73
2022/01/11 02:59:08;;;;;;;31.10;24.85;;;;;;;-2.45;100.00;100311.22;2105439;28;20237;-73
2022/01/11 03:00:12;;;;;;;29.23;23.63;;;;;;;-2.38;100.00;100317.34;2105193;28;20756;-73
2022/01/11 03:01:14;;;;;;;29.48;24.10;;;;;;;-2.23;100.00;100306.91;2104897;28;20269;-73
2022/01/11 03:02:15;;;;;;;26.90;22.73;;;;;;;-2.13;100.00;100307.44;2097350;28;20290;-73
2022/01/11 03:03:22;;;;;;;27.38;23.77;;;;;;;-2.20;100.00;100314.38;2097578;28;20742;-73
2022/01/11 03:04:28;;;;;;;27.23;23.85;;;;;;;-2.29;100.00;100311.84;2105044;28;20721;-74
2022/01/11 03:05:31;;;;;;;30.73;24.80;;;;;;;-2.38;100.00;100315.56;2097952;28;20271;-73
2022/01/11 03:06:36;;;;;;;29.48;24.20;;;;;;;-2.39;100.00;100320.97;2097568;28;20218;-73
2022/01/11 03:07:37;;;;;;;30.02;23.88;;;;;;;-2.40;100.00;100320.16;2105176;28;20323;-74
2022/01/11 03:08:42;;;;;;;28.95;24.60;;;;;;;-2.40;100.00;100319.34;2105697;28;20255;-73
2022/01/11 03:09:59;;;;;;;29.95;24.60;;;;;;;-2.40;100.00;100314.94;2105278;28;20254;-73
2022/01/11 03:11:06;;;;;;;28.05;23.23;;;;;;;-2.14;100.00;100326.72;2098789;28;20246;-73
2022/01/11 03:12:12;;;;;;;30.65;24.38;;;;;;;-2.19;100.00;100321.22;2097808;28;20218;-72
2022/01/11 03:13:16;;;;;;;29.80;23.90;;;;;;;-2.28;100.00;100326.53;2097259;28;20678;-73
2022/01/11 03:14:17;;;;;;;31.50;24.92;;;;;;;-2.22;100.00;100319.78;2097534;28;20218;-73
2022/01/11 03:15:19;;;;;;;37.93;24.80;;;;;;;-2.10;100.00;100326.16;2105444;28;20583;-73
2022/01/11 03:16:24;;;;;;;28.67;23.15;;;;;;;-2.14;100.00;100334.56;2097151;28;20230;-73
2022/01/11 03:17:26;;;;;;;28.33;23.45;;;;;;;-2.29;100.00;100331.94;2097156;28;20334;-73
2022/01/11 03:18:28;;;;;;;27.35;22.55;;;;;;;-2.40;100.00;100330.59;2105526;28;20667;-73
2022/01/11 03:19:29;;;;;;;29.20;23.73;;;;;;;-2.44;100.00;100331.13;2105446;28;20710;-73
2022/01/11 03:20:31;;;;;;;29.67;21.80;;;;;;;-2.38;100.00;100333.84;2105625;28;20650;-73
2022/01/11 03:21:33;;;;;;;27.95;22.92;;;;;;;-2.44;100.00;100329.31;2105273;28;20535;-73
2022/01/11 03:22:35;;;;;;;31.35;23.60;;;;;;;-2.38;100.00;100328.63;2097190;28;20218;-72
2022/01/11 03:23:37;;;;;;;26.08;22.52;;;;;;;-2.28;100.00;100333.56;2105561;28;20216;-73
2022/01/11 03:24:38;;;;;;;37.03;23.95;;;;;;;-2.38;100.00;100339.06;2105035;28;20282;-74
2022/01/11 03:25:44;;;;;;;28.08;23.85;;;;;;;-2.47;100.00;100334.94;2105514;28;20671;-73
2022/01/11 03:26:47;;;;;;;30.80;23.85;;;;;;;-2.51;100.00;100351.16;2097676;28;20221;-73
2022/01/11 03:27:49;;;;;;;29.20;23.37;;;;;;;-2.59;100.00;100342.41;2105421;28;20221;-73
2022/01/11 03:28:52;;;;;;;30.35;23.50;;;;;;;-2.36;100.00;100349.34;2096788;28;20702;-75
2022/01/11 03:29:55;;;;;;;27.63;22.38;;;;;;;-2.20;100.00;100346.53;2097127;28;20707;-73
2022/01/11 03:30:57;;;;;;;30.58;24.27;;;;;;;-2.29;100.00;100351.06;2105289;28;20225;-73
2022/01/11 03:31:59;;;;;;;27.70;22.17;;;;;;;-2.39;100.00;100349.72;2097165;28;20218;-72
2022/01/11 03:33:06;;;;;;;24.48;21.42;;;;;;;-2.38;100.00;100346.91;2097293;28;20308;-72
2022/01/11 03:34:08;;;;;;;24.27;21.38;;;;;;;-2.36;100.00;100351.94;2097090;28;20584;-74
2022/01/11 03:35:11;;;;;;;29.77;24.70;;;;;;;-2.46;100.00;100351.41;2096857;28;20229;-72
2022/01/11 03:36:12;;;;;;;29.65;23.00;;;;;;;-2.52;100.00;100358.16;2105263;28;20372;-72
2022/01/11 03:37:14;;;;;;;26.95;23.02;;;;;;;-2.54;100.00;100351.50;2105319;28;20588;-73
2022/01/11 03:38:18;;;;;;;27.00;24.20;;;;;;;-2.47;100.00;100345.38;2097140;28;20314;-73
2022/01/11 03:39:26;;;;;;;27.40;23.33;;;;;;;-2.57;100.00;100350.06;2104866;28;20703;-72
2022/01/11 03:40:31;;;;;;;28.63;22.85;;;;;;;-2.45;100.00;100355.63;2097155;28;20226;-73
2022/01/11 03:41:35;;;;;;;31.88;22.77;;;;;;;-2.46;100.00;100362.66;2097794;28;20226;-72
2022/01/11 03:42:37;;;;;;;30.92;23.17;;;;;;;-2.51;100.00;100361.59;2096933;28;20229;-73
2022/01/11 03:43:40;;;;;;;29.73;22.80;;;;;;;-2.46;100.00;100361.88;2104746;28;20574;-73
2022/01/11 03:44:44;;;;;;;27.05;23.85;;;;;;;-2.58;100.00;100358.88;2097375;28;20237;-72
2022/01/11 03:45:47;;;;;;;28.15;23.23;;;;;;;-2.70;100.00;100355.06;2105270;28;20577;-72
2022/01/11 03:46:49;;;;;;;29.25;23.35;;;;;;;-2.77;100.00;100359.41;2097040;28;20604;-72
2022/01/11 03:47:52;;;;;;;27.20;23.45;;;;;;;-2.75;100.00;100357.41;2096994;28;20276;-72
2022/01/11 03:48:55;;;;;;;28.77;22.67;;;;;;;-2.62;100.00;100357.59;2096883;28;20677;-73
2022/01/11 03:49:57;;;;;;;27.77;23.65;;;;;;;-2.55;100.00;100363.75;2105251;28;20270;-73
2022/01/11 03:50:59;;;;;;;30.43;23.43;;;;;;;-2.54;100.00;100370.59;2105239;28;20225;-73
2022/01/11 03:52:13;;;;;;;27.33;23.08;;;;;;;-2.59;100.00;100368.53;2104712;28;20225;-73
2022/01/11 03:53:18;;;;;;;28.48;24.02;;;;;;;-2.69;100.00;100367.16;2097021;28;20218;-73
2022/01/11 03:54:42;;;;;;;24.90;22.15;;;;;;;-2.76;100.00;100369.66;2104807;28;20225;-73
2022/01/11 03:57:12;;;;;;;27.83;22.45;;;;;;;-2.69;100.00;100375.00;2102228;28;20217;-72
2022/01/11 03:58:17;;;;;;;25.40;22.02;;;;;;;-2.60;100.00;100372.13;2105165;28;20300;-73
2022/01/11 03:59:20;;;;;;;26.85;23.95;;;;;;;-2.62;100.00;100381.94;2096883;28;20229;-72
2022/01/11 04:00:22;;;;;;;27.15;23.90;;;;;;;-2.78;100.00;100383.88;2096739;28;20218;-73
2022/01/11 04:01:28;;;;;;;28.30;23.00;;;;;;;-2.84;100.00;100385.41;2096997;28;20589;-73
2022/01/11 04:02:29;;;;;;;26.05;22.92;;;;;;;-2.78;100.00;100378.66;2096797;28;20226;-74
2022/01/11 04:03:31;;;;;;;25.40;22.70;;;;;;;-2.71;100.00;100380.38;2096707;28;20304;-73
2022/01/11 04:04:32;;;;;;;26.77;23.10;;;;;;;-2.79;100.00;100385.66;2105099;28;20213;-73
2022/01/11 04:05:34;;;;;;;26.83;23.93;;;;;;;-2.83;100.00;100386.22;2096757;28;20305;-73
2022/01/11 04:06:35;;;;;;;27.20;22.55;;;;;;;-2.85;100.00;100389.81;2096683;28;20550;-73
2022/01/11 04:07:40;;;;;;;26.10;23.30;;;;;;;-2.87;100.00;100390.97;2104505;28;20224;-75
2022/01/11 04:08:41;;;;;;;28.10;23.33;;;;;;;-2.95;100.00;100381.41;2097007;28;20246;-74
2022/01/11 04:09:45;;;;;;;30.48;24.75;;;;;;;-2.96;100.00;100382.38;2096838;28;20275;-73
2022/01/11 04:10:48;;;;;;;29.98;24.08;;;;;;;-2.92;100.00;100377.63;2097045;28;20222;-73
2022/01/11 04:11:50;;;;;;;27.60;23.17;;;;;;;-2.77;100.00;100396.78;2104943;28;20231;-73
2022/01/11 04:12:53;;;;;;;26.67;22.92;;;;;;;-2.68;100.00;100400.13;2096780;28;20222;-73
2022/01/11 04:13:58;;;;;;;26.20;23.33;;;;;;;-2.74;100.00;100385.16;2096581;28;20242;-73
2022/01/11 04:15:04;;;;;;;27.70;22.23;;;;;;;-2.73;100.00;100397.22;2097172;28;20782;-73
2022/01/11 04:16:07;;;;;;;23.83;20.65;;;;;;;-2.70;100.00;100391.63;2105098;28;20217;-73
2022/01/11 04:17:08;;;;;;;23.50;21.10;;;;;;;-2.57;100.00;100397.09;2105347;28;20304;-74
2022/01/11 04:18:09;;;;;;;26.53;23.37;;;;;;;-2.66;100.00;100398.16;2104893;28;20223;-74
2022/01/11 04:19:12;;;;;;;25.63;22.60;;;;;;;-2.66;100.00;100392.91;2096800;28;20245;-73
2022/01/11 04:20:19;;;;;;;26.87;24.00;;;;;;;-2.67;100.00;100401.75;2096439;28;20228;-73
2022/01/11 04:21:26;;;;;;;25.10;22.40;;;;;;;-2.71;100.00;100393.44;2096673;28;20222;-76
2022/01/11 04:22:30;;;;;;;26.17;23.42;;;;;;;-2.69;100.00;100395.91;2097547;28;20316;-74
2022/01/11 04:23:33;;;;;;;26.83;22.55;;;;;;;-2.83;100.00;100391.44;2096674;28;20225;-73
2022/01/11 04:24:34;;;;;;;29.38;23.88;;;;;;;-2.87;100.00;100390.97;2096623;28;20218;-73
2022/01/11 04:25:37;;;;;;;26.30;23.37;;;;;;;-2.98;100.00;100389.56;2105063;28;20275;-73
2022/01/11 04:26:38;;;;;;;27.15;23.13;;;;;;;-3.06;100.00;100387.03;2104528;28;20318;-74
2022/01/11 04:27:42;;;;;;;26.35;23.48;;;;;;;-3.01;100.00;100382.09;2096651;28;20301;-74
2022/01/11 04:28:44;;;;;;;31.38;22.50;;;;;;;-2.89;100.00;100383.31;2096642;28;20643;-73
2022/01/11 04:29:48;;;;;;;26.60;23.77;;;;;;;-2.94;100.00;100388.25;2105001;28;20221;-73
2022/01/11 04:30:49;;;;;;;26.00;23.25;;;;;;;-3.05;100.00;100386.03;2104679;28;20225;-73
2022/01/11 04:31:51;;;;;;;27.65;24.75;;;;;;;-3.12;100.00;100385.13;2096488;28;20637;-73
2022/01/11 04:32:54;;;;;;;29.17;23.95;;;;;;;-3.17;100.00;100384.84;2104288;28;20225;-73
2022/01/11 04:33:56;;;;;;;29.03;23.83;;;;;;;-3.17;100.00;100379.63;2104702;28;20248;-73
2022/01/11 04:34:57;;;;;;;28.63;24.65;;;;;;;-3.17;100.00;100390.06;2096179;28;20688;-73
2022/01/11 04:36:02;;;;;;;28.15;25.23;;;;;;;-3.21;100.00;100392.22;2096955;28;20218;-73
2022/01/11 04:37:05;;;;;;;28.80;24.23;;;;;;;-3.18;100.00;100388.44;2096834;28;20282;-73
2022/01/11 04:38:08;;;;;;;29.23;24.10;;;;;;;-3.07;100.00;100393.25;2096629;28;20309;-73
2022/01/11 04:39:11;;;;;;;27.73;24.77;;;;;;;-3.17;100.00;100403.09;2096454;28;20755;-73
2022/01/11 04:40:13;;;;;;;29.20;25.05;;;;;;;-3.19;100.00;100400.66;2096425;28;20696;-73
2022/01/11 04:41:19;;;;;;;34.67;24.95;;;;;;;-3.13;100.00;100396.53;2104660;28;20216;-73
2022/01/11 04:42:25;;;;;;;31.90;24.38;;;;;;;-3.20;100.00;100393.03;2096883;28;20234;-73
2022/01/11 04:43:30;;;;;;;31.90;24.98;;;;;;;-3.29;100.00;100394.06;2104644;28;21802;-73
2022/01/11 04:44:32;;;;;;;27.17;24.15;;;;;;;-3.31;100.00;100396.81;2096891;28;20218;-73
2022/01/11 04:45:35;;;;;;;27.00;24.20;;;;;;;-3.39;100.00;100406.50;2096554;28;20238;-73
2022/01/11 04:46:35;;;;;;;29.95;23.60;;;;;;;-3.36;100.00;100395.72;2096521;28;20225;-73
2022/01/11 04:47:37;;;;;;;29.57;23.77;;;;;;;-3.41;100.00;100394.44;2096351;28;20297;-73